Time;durP1;ratioP1;P1;durP2;ratioP2;P2;SDS_P1;SDS_P2;PMS_P1;PMS_P2;Temp;Humidity;BMP_temperature;BMP_pressure;BME280_temperature;BME280_humidity;BME280_pressure;Samples;Min_cycle;Max_cycle;Signal;HPM_P1;HPM_P2
2021/04/10 00:00:20;;;;;;;63.67;8.50;;;9.70;1.00;;;;;;5071873;28;20451;-65
2021/04/10 00:02:48;;;;;;;62.80;7.40;;;9.60;1.00;;;;;;5071667;28;21021;-65
2021/04/10 00:05:17;;;;;;;64.10;8.27;;;9.60;1.00;;;;;;5071638;28;20573;-65
2021/04/10 00:07:43;;;;;;;64.60;8.60;;;9.50;1.00;;;;;;5071740;28;21015;-65
2021/04/10 00:10:11;;;;;;;62.17;7.70;;;9.50;1.00;;;;;;5071458;28;20489;-65
2021/04/10 00:12:38;;;;;;;63.70;7.60;;;9.50;1.00;;;;;;5071610;28;20924;-65
2021/04/10 00:15:07;;;;;;;61.50;6.90;;;9.50;1.00;;;;;;5071719;28;20474;-65
2021/04/10 00:17:33;;;;;;;62.10;8.27;;;9.40;1.00;;;;;;5071589;28;20946;-65
2021/04/10 00:19:59;;;;;;;63.10;7.83;;;9.40;1.00;;;;;;5071585;28;20895;-65
2021/04/10 00:22:27;;;;;;;61.10;7.03;;;9.40;1.00;;;;;;5071396;28;20446;-65
2021/04/10 00:24:53;;;;;;;61.20;7.00;;;9.30;1.00;;;;;;5071509;28;20452;-65
2021/04/10 00:27:19;;;;;;;61.10;7.60;;;9.30;1.00;;;;;;5071753;28;20456;-66
2021/04/10 00:29:46;;;;;;;62.20;8.43;;;9.20;1.00;;;;;;5071388;28;20546;-65
2021/04/10 00:32:12;;;;;;;62.27;8.23;;;9.20;1.00;;;;;;5071392;28;20886;-65
2021/04/10 00:34:38;;;;;;;65.63;8.90;;;9.10;1.00;;;;;;5071469;28;20475;-65
2021/04/10 00:37:04;;;;;;;62.17;7.40;;;9.10;1.00;;;;;;5071283;28;20531;-65
2021/04/10 00:39:32;;;;;;;61.20;6.80;;;9.10;1.00;;;;;;5071530;28;20504;-66
2021/04/10 00:41:58;;;;;;;63.30;7.37;;;9.00;1.00;;;;;;5071236;28;20565;-66
2021/04/10 00:44:24;;;;;;;60.17;6.43;;;9.10;1.00;;;;;;5071566;28;20976;-65
2021/04/10 00:46:51;;;;;;;63.80;6.40;;;9.10;1.00;;;;;;5071261;28;20998;-65
2021/04/10 00:49:17;;;;;;;65.77;6.87;;;9.10;1.00;;;;;;5073955;28;20576;-65
2021/04/10 00:51:43;;;;;;;61.40;7.33;;;9.10;1.00;;;;;;5075275;28;20496;-65
2021/04/10 00:54:10;;;;;;;65.90;7.20;;;9.10;1.00;;;;;;5075239;28;20481;-66
2021/04/10 00:56:37;;;;;;;66.17;7.50;;;9.20;1.00;;;;;;5075359;28;20454;-65
2021/04/10 00:59:03;;;;;;;60.67;6.47;;;9.20;1.00;;;;;;5074956;28;20715;-65
2021/04/10 01:01:30;;;;;;;61.77;7.83;;;9.30;1.00;;;;;;5074971;28;20460;-65
2021/04/10 01:03:58;;;;;;;64.93;7.23;;;9.30;1.00;;;;;;5074773;28;20874;-66
2021/04/10 01:06:25;;;;;;;59.70;6.30;;;9.40;1.00;;;;;;5074936;28;20456;-65
2021/04/10 01:08:51;;;;;;;61.00;5.97;;;9.40;1.00;;;;;;5074688;28;20580;-66
2021/04/10 01:11:29;;;;;;;60.37;6.77;;;9.50;1.00;;;;;;5074750;28;20477;-65
2021/04/10 01:14:02;;;;;;;63.33;7.40;;;9.50;1.00;;;;;;5074747;28;20442;-66
2021/04/10 01:16:34;;;;;;;61.53;6.90;;;9.60;1.00;;;;;;5074931;28;20882;-65
2021/04/10 01:19:14;;;;;;;59.67;6.40;;;9.60;1.00;;;;;;5074784;28;20500;-66
2021/04/10 01:21:46;;;;;;;61.90;6.83;;;9.60;1.00;;;;;;5075066;28;20478;-66
2021/04/10 01:24:36;;;;;;;62.50;7.97;;;9.70;1.00;;;;;;5074536;28;21016;-65
2021/04/10 01:27:21;;;;;;;63.73;7.90;;;9.70;1.00;;;;;;5074440;28;20450;-66
2021/04/10 01:29:51;;;;;;;61.70;8.10;;;9.70;1.00;;;;;;5074256;28;20484;-66
2021/04/10 01:32:19;;;;;;;62.67;7.97;;;9.60;1.00;;;;;;5074627;28;20524;-66
2021/04/10 01:34:48;;;;;;;62.57;7.70;;;9.60;1.00;;;;;;5074489;28;20533;-66
2021/04/10 01:37:20;;;;;;;60.13;6.97;;;9.60;1.00;;;;;;5074292;28;20823;-65
2021/04/10 01:39:48;;;;;;;62.07;6.00;;;9.60;1.00;;;;;;5074209;28;20505;-65
2021/04/10 01:42:15;;;;;;;61.20;7.00;;;9.60;1.00;;;;;;5074321;28;20568;-65
2021/04/10 01:44:43;;;;;;;61.90;6.27;;;9.60;1.00;;;;;;5074332;28;20544;-65
2021/04/10 01:47:14;;;;;;;61.33;6.37;;;9.60;1.00;;;;;;5073976;28;20453;-65
2021/04/10 01:49:42;;;;;;;60.13;6.17;;;9.60;1.00;;;;;;5073961;28;20558;-65
2021/04/10 01:52:09;;;;;;;61.03;6.00;;;9.60;1.00;;;;;;5073866;28;20533;-66
2021/04/10 01:54:37;;;;;;;59.00;5.00;;;9.70;1.00;;;;;;5074048;28;20532;-65
2021/04/10 01:57:05;;;;;;;61.00;4.80;;;9.70;1.00;;;;;;5074130;28;20541;-65
2021/04/10 01:59:32;;;;;;;61.40;5.17;;;9.80;1.00;;;;;;5072825;28;20463;-66
2021/04/10 02:01:59;;;;;;;58.20;4.80;;;9.90;1.00;;;;;;5073955;28;20522;-66
2021/04/10 02:04:27;;;;;;;57.83;4.23;;;10.10;1.00;;;;;;5073911;28;20886;-65
2021/04/10 02:06:54;;;;;;;57.93;3.90;;;10.20;1.00;;;;;;5073699;28;20664;-66
2021/04/10 02:09:22;;;;;;;58.13;3.60;;;10.40;1.00;;;;;;5073475;28;20581;-66
2021/04/10 02:11:50;;;;;;;58.63;3.30;;;10.60;1.00;;;;;;5073911;28;20863;-65
2021/04/10 02:14:18;;;;;;;59.10;3.90;;;10.90;1.00;;;;;;5073634;28;20447;-66
2021/04/10 02:16:44;;;;;;;65.33;4.00;;;11.10;1.00;;;;;;5073519;28;20531;-65
2021/04/10 02:19:11;;;;;;;57.90;3.20;;;11.30;1.00;;;;;;5073450;28;20553;-65
2021/04/10 02:21:39;;;;;;;58.70;3.60;;;11.40;1.00;;;;;;5073668;28;20450;-66
2021/04/10 02:24:06;;;;;;;58.73;3.63;;;11.50;1.00;;;;;;5073370;28;20447;-66
2021/04/10 02:26:33;;;;;;;60.27;3.83;;;11.60;1.00;;;;;;5073344;28;20443;-66
2021/04/10 02:29:00;;;;;;;59.07;3.83;;;11.70;1.00;;;;;;5073213;28;20541;-65
2021/04/10 02:31:30;;;;;;;58.60;3.30;;;11.80;1.00;;;;;;5073280;28;20444;-65
2021/04/10 02:34:00;;;;;;;57.20;3.13;;;11.90;1.00;;;;;;5073071;28;20530;-66
2021/04/10 02:36:28;;;;;;;59.57;3.27;;;11.90;1.00;;;;;;5073210;28;20450;-66
2021/04/10 02:38:57;;;;;;;57.27;3.30;;;11.90;1.00;;;;;;5072825;28;20554;-65
2021/04/10 02:41:25;;;;;;;58.07;3.60;;;12.00;1.00;;;;;;5073049;28;20451;-65
2021/04/10 02:43:55;;;;;;;60.30;3.40;;;12.00;1.00;;;;;;5072966;28;20825;-65
2021/04/10 02:46:25;;;;;;;60.17;3.60;;;12.00;1.00;;;;;;5072875;28;20443;-65
2021/04/10 02:48:57;;;;;;;57.40;3.20;;;12.00;1.00;;;;;;5072982;28;20493;-65
2021/04/10 02:51:29;;;;;;;59.77;3.47;;;11.90;1.00;;;;;;5073173;28;20560;-66
2021/04/10 02:53:57;;;;;;;57.27;3.23;;;11.90;1.00;;;;;;5072833;28;20448;-65
2021/04/10 02:56:28;;;;;;;58.60;3.77;;;11.90;1.00;;;;;;5072796;28;20543;-66
2021/04/10 02:58:55;;;;;;;57.63;3.20;;;11.90;1.00;;;;;;5072556;28;20459;-65
2021/04/10 03:01:22;;;;;;;57.00;3.30;;;12.00;1.00;;;;;;5072933;28;20454;-65
2021/04/10 03:03:51;;;;;;;58.53;3.47;;;12.00;1.00;;;;;;5072622;28;20534;-66
2021/04/10 03:06:18;;;;;;;58.40;3.20;;;12.10;1.00;;;;;;5072476;28;20550;-65
2021/04/10 03:08:47;;;;;;;57.47;3.23;;;12.10;1.00;;;;;;5072504;28;20486;-65
2021/04/10 03:11:15;;;;;;;56.83;3.10;;;12.20;1.00;;;;;;5072203;28;20482;-65
2021/04/10 03:13:42;;;;;;;57.30;3.40;;;12.20;1.00;;;;;;5072503;28;20508;-65
2021/04/10 03:16:09;;;;;;;56.97;3.03;;;12.30;1.00;;;;;;5072644;28;20530;-66
2021/04/10 03:18:38;;;;;;;56.97;3.20;;;12.30;1.00;;;;;;5072286;28;20554;-65
2021/04/10 03:21:05;;;;;;;58.67;3.53;;;12.30;1.00;;;;;;5072329;28;21069;-66
2021/04/10 03:23:32;;;;;;;57.90;3.10;;;12.30;1.00;;;;;;5072125;28;20451;-66
2021/04/10 03:26:00;;;;;;;60.67;3.30;;;12.30;1.00;;;;;;5072190;28;20492;-65
2021/04/10 03:28:29;;;;;;;59.80;3.40;;;12.30;1.00;;;;;;5072265;28;20487;-65
2021/04/10 03:30:57;;;;;;;58.97;2.90;;;12.30;1.00;;;;;;5072332;28;20493;-66
2021/04/10 03:33:24;;;;;;;56.80;3.10;;;12.30;1.00;;;;;;5072006;28;20542;-66
2021/04/10 03:35:51;;;;;;;59.00;3.50;;;12.30;1.00;;;;;;5072082;28;20450;-66
2021/04/10 03:38:18;;;;;;;57.77;3.03;;;12.30;1.00;;;;;;5071860;28;20519;-66
2021/04/10 03:40:44;;;;;;;58.00;3.40;;;12.30;1.00;;;;;;5072182;28;20870;-66
2021/04/10 03:43:10;;;;;;;57.90;3.00;;;12.20;1.00;;;;;;5072105;28;20974;-65
2021/04/10 03:45:38;;;;;;;59.77;3.07;;;12.20;1.00;;;;;;5072033;28;20453;-65
2021/04/10 03:48:05;;;;;;;58.07;3.27;;;12.20;1.00;;;;;;5071892;28;20459;-65
2021/04/10 03:50:31;;;;;;;57.17;3.17;;;12.20;1.00;;;;;;5071797;28;20485;-66
2021/04/10 03:52:58;;;;;;;57.57;3.00;;;12.20;1.00;;;;;;5071639;28;20454;-65
2021/04/10 03:55:24;;;;;;;57.57;3.10;;;12.10;1.00;;;;;;5071974;28;20438;-66
2021/04/10 03:57:52;;;;;;;59.67;3.30;;;12.00;1.00;;;;;;5071795;28;20451;-66
2021/04/10 04:00:19;;;;;;;57.07;3.10;;;11.80;1.00;;;;;;5071922;28;20882;-66
2021/04/10 04:02:46;;;;;;;57.53;2.97;;;11.70;1.00;;;;;;5071707;28;20442;-65
2021/04/10 04:05:13;;;;;;;57.00;3.30;;;11.60;1.00;;;;;;5071895;28;20505;-65
2021/04/10 04:07:39;;;;;;;59.43;3.60;;;11.50;1.00;;;;;;5072167;28;21127;-65
2021/04/10 04:10:07;;;;;;;59.47;4.00;;;11.50;1.00;;;;;;5071662;28;20975;-65
2021/04/10 04:12:33;;;;;;;57.67;3.20;;;11.50;1.00;;;;;;5071701;28;20530;-65
2021/04/10 04:14:59;;;;;;;57.23;3.20;;;11.50;1.00;;;;;;5071810;28;20490;-66
2021/04/10 04:17:26;;;;;;;57.00;3.20;;;11.60;1.00;;;;;;5071664;28;20483;-65
2021/04/10 04:19:53;;;;;;;63.03;3.17;;;11.60;1.00;;;;;;5071638;28;20543;-66
2021/04/10 04:22:19;;;;;;;59.00;3.60;;;11.70;1.00;;;;;;5071403;28;20496;-65
2021/04/10 04:24:46;;;;;;;57.77;3.83;;;11.80;1.00;;;;;;5075664;28;20525;-66
2021/04/10 04:27:12;;;;;;;58.50;3.70;;;11.80;1.00;;;;;;5075795;28;20908;-65
2021/04/10 04:29:38;;;;;;;59.73;3.43;;;11.90;1.00;;;;;;5075506;28;20565;-66
2021/04/10 04:32:05;;;;;;;58.03;3.20;;;11.90;1.00;;;;;;5075667;28;21023;-65
2021/04/10 04:34:31;;;;;;;57.83;3.50;;;12.00;1.00;;;;;;5075569;28;20475;-65
2021/04/10 04:36:59;;;;;;;57.67;3.40;;;12.00;1.00;;;;;;5075672;28;20443;-65
2021/04/10 04:39:25;;;;;;;56.70;3.10;;;12.00;1.00;;;;;;5075554;28;20847;-65
2021/04/10 04:41:51;;;;;;;59.47;2.80;;;11.90;1.00;;;;;;5075315;28;20890;-66
2021/04/10 04:44:18;;;;;;;57.00;3.10;;;11.90;1.00;;;;;;5075483;28;20541;-65
2021/04/10 04:46:44;;;;;;;56.80;3.10;;;11.90;1.00;;;;;;5075276;28;20512;-66
2021/04/10 04:49:10;;;;;;;57.70;3.10;;;11.90;1.00;;;;;;5075080;28;20574;-66
2021/04/10 04:51:37;;;;;;;58.43;3.13;;;11.90;1.00;;;;;;5075387;28;20457;-65
2021/04/10 04:54:04;;;;;;;56.37;3.00;;;11.80;1.00;;;;;;5075301;28;20447;-65
2021/04/10 04:56:31;;;;;;;57.60;2.97;;;11.70;1.00;;;;;;5075453;28;20925;-66
2021/04/10 04:58:57;;;;;;;56.57;2.97;;;11.60;1.00;;;;;;5075090;28;21042;-65
2021/04/10 05:01:23;;;;;;;60.60;3.73;;;11.50;1.00;;;;;;5075274;28;20446;-66
2021/04/10 05:03:50;;;;;;;57.20;3.20;;;11.40;1.00;;;;;;5075646;28;20538;-65
2021/04/10 05:06:16;;;;;;;58.20;3.00;;;11.30;1.00;;;;;;5075366;28;20542;-65
2021/04/10 05:08:42;;;;;;;56.87;3.00;;;11.30;1.00;;;;;;5074887;28;20581;-65
2021/04/10 05:11:10;;;;;;;56.10;2.80;;;11.30;1.00;;;;;;5075041;28;20449;-65
2021/04/10 05:13:36;;;;;;;64.23;3.40;;;11.40;1.00;;;;;;5074670;28;20443;-65
2021/04/10 05:16:02;;;;;;;56.87;2.80;;;11.50;1.00;;;;;;5074706;28;20450;-66
2021/04/10 05:18:29;;;;;;;57.27;2.70;;;11.50;1.00;;;;;;5074586;28;20887;-65
2021/04/10 05:20:55;;;;;;;59.10;2.60;;;11.50;1.00;;;;;;5074847;28;20885;-65
2021/04/10 05:23:22;;;;;;;58.40;3.27;;;11.50;1.00;;;;;;5074611;28;20537;-65
2021/04/10 05:25:50;;;;;;;58.17;3.33;;;11.40;1.00;;;;;;5074490;28;20955;-66
2021/04/10 05:28:17;;;;;;;56.17;2.80;;;11.30;1.00;;;;;;5074338;28;20550;-66
2021/04/10 05:30:44;;;;;;;58.60;3.17;;;11.20;1.00;;;;;;5074447;28;20489;-66
2021/04/10 05:33:10;;;;;;;57.03;2.90;;;11.10;1.00;;;;;;5074277;28;20459;-65
2021/04/10 05:35:37;;;;;;;57.57;3.07;;;10.90;1.00;;;;;;5074395;28;20445;-66
2021/04/10 05:38:03;;;;;;;56.97;2.93;;;10.70;1.00;;;;;;5074527;28;20541;-66
2021/04/10 05:40:30;;;;;;;57.30;2.90;;;10.60;1.00;;;;;;5074346;28;20877;-66
2021/04/10 05:42:57;;;;;;;56.80;3.27;;;10.50;1.00;;;;;;5074224;28;20452;-66
2021/04/10 05:45:24;;;;;;;58.60;3.37;;;10.60;1.00;;;;;;5074005;28;20460;-66
2021/04/10 05:47:50;;;;;;;59.30;3.23;;;10.60;1.00;;;;;;5074074;28;20486;-66
2021/04/10 05:50:17;;;;;;;61.80;3.40;;;10.60;1.00;;;;;;5074118;28;21036;-66
2021/04/10 05:52:43;;;;;;;58.57;3.20;;;10.70;1.00;;;;;;5074232;28;20910;-66
2021/04/10 05:55:10;;;;;;;60.73;2.93;;;10.70;1.00;;;;;;5074089;28;20478;-66
2021/04/10 05:57:37;;;;;;;59.20;3.10;;;10.80;1.00;;;;;;5074103;28;20534;-66
2021/04/10 06:00:04;;;;;;;57.30;3.23;;;10.80;1.00;;;;;;5073676;28;20553;-66
2021/04/10 06:02:32;;;;;;;57.00;3.47;;;10.90;1.00;;;;;;5073995;28;20487;-66
2021/04/10 06:04:58;;;;;;;59.13;3.40;;;10.90;1.00;;;;;;5073953;28;20812;-66
2021/04/10 06:07:24;;;;;;;63.37;3.20;;;11.00;1.00;;;;;;5073992;28;20537;-66
2021/04/10 06:09:51;;;;;;;58.30;3.40;;;11.00;1.00;;;;;;5073695;28;20987;-66
2021/04/10 06:12:17;;;;;;;57.87;3.13;;;11.00;1.00;;;;;;5073597;28;20962;-66
2021/04/10 06:14:43;;;;;;;57.87;3.10;;;11.10;1.00;;;;;;5074026;28;20553;-66
2021/04/10 06:17:10;;;;;;;56.97;3.07;;;11.20;1.00;;;;;;5073863;28;20499;-66
2021/04/10 06:19:37;;;;;;;61.97;3.27;;;11.20;1.00;;;;;;5073723;28;20467;-66
2021/04/10 06:22:04;;;;;;;56.70;3.10;;;11.30;1.00;;;;;;5073876;28;20450;-66
2021/04/10 06:24:30;;;;;;;55.97;2.57;;;11.30;1.00;;;;;;5073757;28;20976;-66
2021/04/10 06:26:56;;;;;;;62.70;2.73;;;11.40;1.00;;;;;;5073822;28;20453;-67
2021/04/10 06:29:23;;;;;;;58.90;2.83;;;11.40;1.00;;;;;;5073522;28;20617;-67
2021/04/10 06:31:49;;;;;;;59.90;2.90;;;11.40;1.00;;;;;;5073901;28;20537;-67
2021/04/10 06:34:15;;;;;;;56.00;2.60;;;11.40;1.00;;;;;;5073565;28;20462;-67
2021/04/10 06:36:43;;;;;;;56.40;2.80;;;11.40;1.00;;;;;;5073473;28;20444;-67
2021/04/10 06:39:09;;;;;;;56.97;2.80;;;11.40;1.00;;;;;;5073501;28;20516;-65
2021/04/10 06:41:35;;;;;;;58.40;3.13;;;11.40;1.00;;;;;;5073397;28;20527;-65
2021/04/10 06:44:02;;;;;;;57.73;3.57;;;11.40;1.00;;;;;;5073476;28;20981;-65
2021/04/10 06:46:32;;;;;;;57.40;2.80;;;11.40;1.00;;;;;;5072781;28;20951;-65
2021/04/10 06:48:59;;;;;;;57.47;3.33;;;11.40;1.00;;;;;;5073208;28;20500;-65
2021/04/10 06:51:26;;;;;;;57.77;2.93;;;11.40;1.00;;;;;;5073403;28;20554;-67
2021/04/10 06:53:55;;;;;;;61.60;3.10;;;11.40;1.00;;;;;;5073269;28;20449;-66
2021/04/10 06:56:24;;;;;;;60.10;3.20;;;11.40;1.00;;;;;;5073131;28;20530;-66
2021/04/10 06:58:56;;;;;;;57.20;3.20;;;11.40;1.00;;;;;;5072984;28;20467;-66
2021/04/10 07:01:23;;;;;;;57.50;2.80;;;11.40;1.00;;;;;;5073178;28;20939;-66
2021/04/10 07:03:51;;;;;;;59.20;3.10;;;11.40;1.00;;;;;;5073139;28;20533;-66
2021/04/10 07:06:17;;;;;;;60.00;3.13;;;11.40;1.00;;;;;;5073239;28;20507;-66
2021/04/10 07:08:44;;;;;;;58.77;3.10;;;11.40;1.00;;;;;;5072567;28;20470;-66
2021/04/10 07:11:12;;;;;;;66.57;4.37;;;11.40;1.00;;;;;;5073143;28;20877;-66
2021/04/10 07:13:39;;;;;;;72.70;5.07;;;11.40;1.00;;;;;;5072766;28;20916;-66
2021/04/10 07:16:06;;;;;;;56.60;3.27;;;11.40;1.00;;;;;;5072466;28;20577;-66
2021/04/10 07:18:32;;;;;;;57.03;2.80;;;11.40;1.00;;;;;;5072409;28;20473;-66
2021/04/10 07:21:19;;;;;;;56.87;2.80;;;11.40;1.00;;;;;;5072535;28;20910;-66
2021/04/10 07:23:47;;;;;;;57.47;3.00;;;11.40;1.00;;;;;;5072174;28;20494;-66
2021/04/10 07:26:16;;;;;;;57.83;3.47;;;11.40;1.00;;;;;;5072434;28;20455;-66
2021/04/10 07:28:42;;;;;;;65.90;3.90;;;11.30;1.00;;;;;;5072137;28;20565;-65
2021/04/10 07:31:10;;;;;;;59.53;3.60;;;11.30;1.00;;;;;;5072466;28;20504;-66
2021/04/10 07:33:38;;;;;;;60.43;3.63;;;11.30;1.00;;;;;;5072517;28;20452;-66
2021/04/10 07:36:06;;;;;;;57.93;3.47;;;11.30;1.00;;;;;;5072840;28;20825;-66
2021/04/10 07:38:34;;;;;;;56.60;3.03;;;11.30;1.00;;;;;;5072312;28;20471;-66
2021/04/10 07:41:02;;;;;;;59.60;3.10;;;11.30;1.00;;;;;;5072139;28;20550;-66
2021/04/10 07:43:31;;;;;;;58.10;3.63;;;11.30;1.00;;;;;;5072051;28;20490;-66
2021/04/10 07:46:11;;;;;;;56.93;3.50;;;11.40;1.00;;;;;;5072515;28;20446;-65
2021/04/10 07:48:37;;;;;;;58.47;3.40;;;11.40;1.00;;;;;;5071965;28;20506;-65
2021/04/10 07:51:15;;;;;;;59.97;3.13;;;11.50;1.00;;;;;;5072229;28;20820;-67
2021/04/10 07:53:42;;;;;;;57.20;3.10;;;11.50;1.00;;;;;;5072019;28;20456;-67
2021/04/10 07:56:09;;;;;;;58.50;3.13;;;11.50;1.00;;;;;;5071839;28;20511;-67
2021/04/10 07:58:37;;;;;;;56.97;3.43;;;11.60;1.00;;;;;;5070761;28;20979;-67
2021/04/10 08:01:05;;;;;;;56.57;3.07;;;11.60;1.00;;;;;;5071735;28;20961;-66
2021/04/10 08:03:34;;;;;;;56.80;3.00;;;11.60;1.00;;;;;;5071597;28;20491;-67
2021/04/10 08:06:19;;;;;;;57.90;3.40;;;11.60;1.00;;;;;;5071802;28;20454;-67
2021/04/10 08:08:54;;;;;;;57.27;3.30;;;11.70;1.00;;;;;;5071517;28;20473;-67
2021/04/10 08:11:31;;;;;;;58.17;3.23;;;11.70;1.00;;;;;;5071632;28;20552;-67
2021/04/10 08:14:00;;;;;;;57.50;2.87;;;11.70;1.00;;;;;;5071723;28;20446;-66
2021/04/10 08:16:27;;;;;;;57.57;2.80;;;11.70;1.00;;;;;;5071508;28;21003;-66
2021/04/10 08:18:55;;;;;;;59.70;3.33;;;11.80;1.00;;;;;;5071575;28;20467;-66
2021/04/10 08:21:22;;;;;;;62.50;3.40;;;11.80;1.00;;;;;;5071625;28;20447;-66
2021/04/10 08:23:49;;;;;;;59.27;3.37;;;11.90;1.00;;;;;;5071482;28;20537;-67
2021/04/10 08:26:17;;;;;;;57.70;3.83;;;11.90;1.00;;;;;;5071735;28;20546;-66
2021/04/10 08:28:44;;;;;;;56.80;3.30;;;11.90;1.00;;;;;;5071511;28;21032;-66
2021/04/10 08:31:11;;;;;;;56.50;2.80;;;11.90;1.00;;;;;;5071574;28;20538;-66
2021/04/10 08:33:38;;;;;;;57.30;2.70;;;11.80;1.00;;;;;;5071755;28;20487;-67
2021/04/10 08:36:07;;;;;;;58.40;3.03;;;11.80;1.00;;;;;;5071586;28;20453;-67
2021/04/10 08:38:34;;;;;;;57.53;3.60;;;11.70;1.00;;;;;;5071850;28;20903;-67
2021/04/10 08:41:03;;;;;;;56.50;3.13;;;11.70;1.00;;;;;;5071751;28;20546;-67
2021/04/10 08:43:31;;;;;;;56.93;3.00;;;11.70;1.00;;;;;;5071485;28;20457;-67
2021/04/10 08:45:59;;;;;;;59.07;3.70;;;11.70;1.00;;;;;;5071394;28;20545;-66
2021/04/10 08:48:28;;;;;;;57.90;3.33;;;11.80;1.00;;;;;;5071332;28;20471;-67
2021/04/10 08:50:58;;;;;;;57.60;3.23;;;11.90;1.00;;;;;;5071167;28;20482;-66
2021/04/10 08:53:27;;;;;;;59.53;3.13;;;11.80;1.00;;;;;;5071403;28;20533;-67
2021/04/10 08:55:56;;;;;;;57.50;3.57;;;11.80;1.00;;;;;;5071382;28;20458;-66
2021/04/10 08:58:23;;;;;;;56.77;3.30;;;11.80;1.00;;;;;;5071353;28;20478;-66
2021/04/10 09:00:54;;;;;;;56.90;2.93;;;11.70;1.00;;;;;;5071185;28;20454;-67
2021/04/10 09:03:21;;;;;;;57.70;3.67;;;11.60;1.00;;;;;;5071003;28;20435;-66
2021/04/10 09:05:50;;;;;;;56.97;3.40;;;11.50;1.00;;;;;;5071379;28;20447;-66
2021/04/10 09:08:24;;;;;;;56.90;3.07;;;11.40;1.00;;;;;;5071663;28;20474;-66
2021/04/10 09:10:52;;;;;;;57.10;3.20;;;11.40;1.00;;;;;;5074556;28;20524;-66
2021/04/10 09:13:41;;;;;;;57.80;3.60;;;11.30;1.00;;;;;;5074752;28;20531;-66
2021/04/10 09:16:23;;;;;;;57.97;3.13;;;11.30;1.00;;;;;;5074758;28;20453;-66
2021/04/10 09:18:52;;;;;;;57.90;2.67;;;11.30;1.00;;;;;;5072783;28;20474;-67
2021/04/10 09:21:24;;;;;;;58.40;4.13;;;11.40;1.00;;;;;;5074735;28;20443;-66
2021/04/10 09:23:50;;;;;;;56.97;3.20;;;11.40;1.00;;;;;;5074535;28;20538;-66
2021/04/10 09:26:18;;;;;;;58.27;3.10;;;11.40;1.00;;;;;;5074478;28;20445;-65
2021/04/10 09:29:16;;;;;;;59.13;3.50;;;11.50;1.00;;;;;;5074412;28;20465;-65
2021/04/10 09:31:45;;;;;;;56.87;3.17;;;11.60;1.00;;;;;;5074516;28;20934;-65
2021/04/10 09:34:53;;;;;;;56.37;3.10;;;11.80;1.00;;;;;;5074444;28;20850;-65
2021/04/10 09:37:45;;;;;;;61.03;2.90;;;12.00;1.00;;;;;;5074585;28;20947;-66
2021/04/10 09:40:18;;;;;;;58.53;4.53;;;12.30;1.00;;;;;;5074280;28;20478;-65
2021/04/10 09:42:45;;;;;;;57.30;3.50;;;12.50;1.00;;;;;;5074203;28;20454;-66
2021/04/10 09:45:14;;;;;;;58.00;3.07;;;12.60;1.00;;;;;;5074357;28;20948;-66
2021/04/10 09:48:18;;;;;;;57.43;3.80;;;12.70;1.00;;;;;;5074269;28;20533;-66
2021/04/10 09:50:46;;;;;;;59.10;4.10;;;12.80;1.00;;;;;;5074153;28;20508;-66
2021/04/10 09:53:14;;;;;;;59.23;3.40;;;12.90;1.00;;;;;;5074030;28;20537;-66
2021/04/10 09:55:42;;;;;;;56.60;3.20;;;12.90;1.00;;;;;;5074243;28;20447;-66
2021/04/10 09:58:12;;;;;;;56.50;2.93;;;12.90;1.00;;;;;;5074017;28;20558;-66
2021/04/10 10:00:41;;;;;;;57.00;3.27;;;12.90;1.00;;;;;;5074016;28;20442;-66
2021/04/10 10:03:08;;;;;;;58.17;3.50;;;13.00;1.00;;;;;;5073797;28;20896;-66
2021/04/10 10:05:37;;;;;;;57.33;3.20;;;13.00;1.00;;;;;;5073826;28;21046;-66
2021/04/10 10:08:03;;;;;;;59.70;3.50;;;13.10;1.00;;;;;;5073647;28;21241;-65
2021/04/10 10:10:32;;;;;;;57.67;3.50;;;13.10;1.00;;;;;;5073928;28;20490;-65
2021/04/10 10:13:06;;;;;;;56.90;2.73;;;13.10;1.00;;;;;;5073867;28;20817;-65
2021/04/10 10:15:33;;;;;;;57.47;3.60;;;13.10;1.00;;;;;;5073854;28;20443;-66
2021/04/10 10:18:13;;;;;;;57.10;3.70;;;13.10;1.00;;;;;;5073573;28;21051;-65
2021/04/10 10:20:51;;;;;;;57.53;3.20;;;13.20;1.00;;;;;;5073018;28;20482;-65
2021/04/10 10:23:17;;;;;;;58.30;3.60;;;13.20;1.00;;;;;;5073674;28;20493;-66
2021/04/10 10:25:45;;;;;;;59.67;4.07;;;13.30;1.00;;;;;;5073457;28;20910;-66
2021/04/10 10:28:13;;;;;;;58.40;4.10;;;13.40;1.00;;;;;;5073586;28;20554;-66
2021/04/10 10:30:40;;;;;;;60.03;3.60;;;13.50;1.00;;;;;;5073365;28;20673;-66
2021/04/10 10:33:07;;;;;;;58.10;3.60;;;13.70;1.00;;;;;;5073250;28;20452;-66
2021/04/10 10:35:34;;;;;;;58.73;3.30;;;13.80;1.00;;;;;;5073340;28;20543;-66
2021/04/10 10:38:04;;;;;;;57.00;3.27;;;13.90;1.00;;;;;;5073156;28;20479;-66
2021/04/10 10:40:31;;;;;;;57.37;3.53;;;14.00;1.00;;;;;;5073248;28;20457;-66
2021/04/10 10:43:00;;;;;;;58.33;3.50;;;14.10;1.00;;;;;;5073108;28;20532;-66
2021/04/10 10:45:43;;;;;;;58.47;3.70;;;14.20;1.00;;;;;;5072900;28;20444;-66
2021/04/10 10:48:17;;;;;;;57.47;3.57;;;14.10;1.00;;;;;;5073287;28;20473;-66
2021/04/10 10:50:43;;;;;;;56.53;3.27;;;14.10;1.00;;;;;;5073145;28;20488;-66
2021/04/10 10:53:16;;;;;;;58.07;3.60;;;14.10;1.00;;;;;;5072971;28;20447;-66
2021/04/10 10:55:57;;;;;;;57.30;3.30;;;14.10;1.00;;;;;;5072785;28;20443;-66
2021/04/10 10:58:24;;;;;;;58.97;3.47;;;14.00;1.00;;;;;;5073047;28;20524;-66
2021/04/10 11:00:51;;;;;;;59.03;3.00;;;14.00;1.00;;;;;;5072981;28;20831;-66
2021/04/10 11:03:21;;;;;;;58.13;3.40;;;13.90;1.00;;;;;;5072795;28;20535;-66
2021/04/10 11:05:49;;;;;;;57.30;2.90;;;13.90;1.00;;;;;;5072630;28;20522;-66
2021/04/10 11:08:17;;;;;;;56.70;2.83;;;13.90;1.00;;;;;;5072687;28;20516;-65
2021/04/10 11:10:44;;;;;;;58.00;2.63;;;13.90;1.00;;;;;;5072936;28;20580;-66
2021/04/10 11:13:11;;;;;;;56.23;2.97;;;13.90;1.00;;;;;;5072928;28;20817;-66
2021/04/10 11:15:39;;;;;;;56.70;3.00;;;14.10;1.00;;;;;;5072833;28;20506;-66
2021/04/10 11:18:06;;;;;;;57.60;3.20;;;14.30;1.00;;;;;;5072765;28;20569;-66
2021/04/10 11:20:34;;;;;;;57.20;3.07;;;14.60;1.00;;;;;;5073193;28;20455;-66
2021/04/10 11:23:05;;;;;;;57.33;3.10;;;14.80;1.00;;;;;;5072247;28;20447;-65
2021/04/10 11:25:47;;;;;;;59.37;3.13;;;15.10;1.00;;;;;;5072584;28;20530;-65
2021/04/10 11:28:27;;;;;;;57.03;2.83;;;15.50;1.00;;;;;;5072501;28;20470;-66
2021/04/10 11:31:05;;;;;;;56.70;3.27;;;15.90;1.00;;;;;;5072251;28;20582;-66
2021/04/10 11:33:32;;;;;;;56.40;3.20;;;16.20;1.00;;;;;;5072021;28;20538;-66
2021/04/10 11:35:58;;;;;;;57.43;3.40;;;16.30;1.00;;;;;;5072211;28;20454;-66
2021/04/10 11:38:25;;;;;;;57.90;2.97;;;16.50;1.00;;;;;;5072454;28;20476;-66
2021/04/10 11:40:51;;;;;;;56.30;3.03;;;16.70;1.00;;;;;;5072164;28;20455;-66
2021/04/10 11:43:18;;;;;;;56.60;2.90;;;17.00;1.00;;;;;;5072237;28;20540;-66
2021/04/10 11:45:47;;;;;;;56.77;3.03;;;17.30;1.00;;;;;;5071979;28;20475;-66
2021/04/10 11:48:16;;;;;;;56.03;2.70;;;17.50;1.00;;;;;;5072142;28;20473;-66
2021/04/10 11:50:45;;;;;;;57.37;2.70;;;17.90;1.00;;;;;;5071871;28;20484;-67
2021/04/10 11:53:13;;;;;;;56.97;2.80;;;18.00;1.00;;;;;;5072301;28;20475;-66
2021/04/10 11:55:40;;;;;;;56.23;2.67;;;18.10;1.00;;;;;;5071797;28;20615;-66
2021/04/10 11:58:06;;;;;;;55.97;2.63;;;18.10;1.00;;;;;;5071804;28;20480;-66
2021/04/10 12:00:33;;;;;;;57.37;2.80;;;18.10;1.00;;;;;;5071662;28;20930;-66
2021/04/10 12:03:06;;;;;;;56.77;2.90;;;18.10;1.00;;;;;;5071893;28;20851;-66
2021/04/10 12:05:40;;;;;;;56.60;2.97;;;18.10;1.00;;;;;;5071869;28;20449;-65
2021/04/10 12:08:22;;;;;;;56.80;2.70;;;18.20;1.00;;;;;;5071914;28;20455;-65
2021/04/10 12:10:51;;;;;;;56.70;2.87;;;18.50;1.00;;;;;;5071500;28;20485;-65
2021/04/10 12:13:18;;;;;;;57.57;3.00;;;18.80;1.00;;;;;;5071628;28;20484;-65
2021/04/10 12:15:49;;;;;;;57.40;2.73;;;18.70;1.00;;;;;;5071591;28;20559;-66
2021/04/10 12:18:18;;;;;;;56.23;3.03;;;18.70;1.00;;;;;;5071683;28;20470;-67
2021/04/10 12:20:46;;;;;;;56.60;2.50;;;18.70;1.00;;;;;;5071655;28;20457;-65
2021/04/10 12:23:13;;;;;;;56.30;2.50;;;18.40;1.00;;;;;;5071484;28;20449;-65
2021/04/10 12:25:39;;;;;;;60.37;2.80;;;18.40;1.00;;;;;;5071408;28;20587;-65
2021/04/10 12:28:06;;;;;;;56.67;3.00;;;18.50;1.00;;;;;;5071656;28;20480;-65
2021/04/10 12:30:33;;;;;;;57.90;3.17;;;18.80;1.00;;;;;;5071363;28;20543;-65
2021/04/10 12:32:59;;;;;;;59.20;2.80;;;19.30;1.00;;;;;;5071527;28;20450;-65
2021/04/10 12:35:26;;;;;;;56.50;2.73;;;19.70;1.00;;;;;;5071460;28;20479;-65
2021/04/10 12:37:53;;;;;;;56.40;3.10;;;20.00;1.00;;;;;;5071344;28;20837;-65
2021/04/10 12:40:20;;;;;;;57.50;2.77;;;20.10;1.00;;;;;;5071226;28;21049;-65
2021/04/10 12:42:46;;;;;;;58.53;3.90;;;20.30;1.00;;;;;;5071400;28;20522;-65
2021/04/10 12:45:13;;;;;;;56.27;2.97;;;20.80;1.00;;;;;;5074285;28;20608;-66
2021/04/10 12:47:40;;;;;;;57.30;2.60;;;21.30;1.00;;;;;;5075355;28;20960;-66
2021/04/10 12:50:08;;;;;;;57.07;2.97;;;21.80;1.00;;;;;;5075110;28;20488;-66
2021/04/10 12:52:35;;;;;;;56.40;2.70;;;22.40;1.00;;;;;;5075089;28;20459;-66
2021/04/10 12:55:03;;;;;;;57.13;3.00;;;23.20;1.00;;;;;;5075417;28;20544;-66